sensor_id;sensor_type;location;lat;lon;timestamp;P1;durP1;ratioP1;P2;durP2;ratioP2
55647;SDS011;45266;48.756;9.246;2023-05-20T00:00:07;5.57;;;3.90;;
55647;SDS011;45266;48.756;9.246;2023-05-20T00:01:10;4.53;;;3.80;;
55647;SDS011;45266;48.756;9.246;2023-05-20T00:02:11;3.80;;;3.30;;
55647;SDS011;45266;48.756;9.246;2023-05-20T00:03:14;5.07;;;3.50;;
55647;SDS011;45266;48.756;9.246;2023-05-20T00:04:17;5.70;;;4.00;;
55647;SDS011;45266;48.756;9.246;2023-05-20T00:05:19;5.72;;;3.78;;
55647;SDS011;45266;48.756;9.246;2023-05-20T00:06:21;6.05;;;3.50;;
55647;SDS011;45266;48.756;9.246;2023-05-20T00:07:23;5.20;;;3.40;;
55647;SDS011;45266;48.756;9.246;2023-05-20T00:08:25;5.90;;;3.85;;
55647;SDS011;45266;48.756;9.246;2023-05-20T00:09:27;4.07;;;3.50;;
55647;SDS011;45266;48.756;9.246;2023-05-20T00:10:29;4.15;;;3.35;;
55647;SDS011;45266;48.756;9.246;2023-05-20T00:11:31;6.38;;;3.25;;
55647;SDS011;45266;48.756;9.246;2023-05-20T00:12:33;8.73;;;3.67;;
55647;SDS011;45266;48.756;9.246;2023-05-20T00:13:35;4.55;;;3.38;;
55647;SDS011;45266;48.756;9.246;2023-05-20T00:14:37;5.22;;;3.65;;
55647;SDS011;45266;48.756;9.246;2023-05-20T00:15:39;4.50;;;3.80;;
55647;SDS011;45266;48.756;9.246;2023-05-20T00:16:41;8.00;;;3.63;;
55647;SDS011;45266;48.756;9.246;2023-05-20T00:17:43;3.57;;;3.27;;
55647;SDS011;45266;48.756;9.246;2023-05-20T00:18:45;4.68;;;3.58;;
55647;SDS011;45266;48.756;9.246;2023-05-20T00:19:47;4.40;;;3.30;;
55647;SDS011;45266;48.756;9.246;2023-05-20T00:20:50;6.03;;;3.60;;
55647;SDS011;45266;48.756;9.246;2023-05-20T00:21:54;4.63;;;3.40;;
55647;SDS011;45266;48.756;9.246;2023-05-20T00:22:58;4.53;;;3.40;;
55647;SDS011;45266;48.756;9.246;2023-05-20T00:24:00;6.15;;;3.42;;
55647;SDS011;45266;48.756;9.246;2023-05-20T00:25:02;6.35;;;3.78;;
55647;SDS011;45266;48.756;9.246;2023-05-20T00:26:04;4.97;;;3.95;;
55647;SDS011;45266;48.756;9.246;2023-05-20T00:27:06;5.22;;;4.00;;
55647;SDS011;45266;48.756;9.246;2023-05-20T00:28:08;6.18;;;3.50;;
55647;SDS011;45266;48.756;9.246;2023-05-20T00:29:10;4.35;;;3.72;;
55647;SDS011;45266;48.756;9.246;2023-05-20T00:30:12;5.53;;;4.10;;
55647;SDS011;45266;48.756;9.246;2023-05-20T00:31:14;4.03;;;3.10;;
55647;SDS011;45266;48.756;9.246;2023-05-20T00:32:16;5.68;;;3.78;;
55647;SDS011;45266;48.756;9.246;2023-05-20T00:33:18;4.22;;;3.53;;
55647;SDS011;45266;48.756;9.246;2023-05-20T00:34:20;4.93;;;3.72;;
55647;SDS011;45266;48.756;9.246;2023-05-20T00:35:22;5.18;;;3.20;;
55647;SDS011;45266;48.756;9.246;2023-05-20T00:36:24;6.22;;;3.17;;
55647;SDS011;45266;48.756;9.246;2023-05-20T00:37:26;4.63;;;3.28;;
55647;SDS011;45266;48.756;9.246;2023-05-20T00:38:28;4.55;;;3.53;;
55647;SDS011;45266;48.756;9.246;2023-05-20T00:39:30;4.78;;;3.53;;
55647;SDS011;45266;48.756;9.246;2023-05-20T00:40:32;4.68;;;3.58;;
55647;SDS011;45266;48.756;9.246;2023-05-20T00:41:34;3.75;;;3.40;;
55647;SDS011;45266;48.756;9.246;2023-05-20T00:42:36;4.20;;;3.30;;
55647;SDS011;45266;48.756;9.246;2023-05-20T00:43:38;4.38;;;3.75;;
55647;SDS011;45266;48.756;9.246;2023-05-20T00:44:41;4.47;;;3.20;;
55647;SDS011;45266;48.756;9.246;2023-05-20T00:45:43;5.40;;;3.55;;
55647;SDS011;45266;48.756;9.246;2023-05-20T00:46:45;4.80;;;3.65;;
55647;SDS011;45266;48.756;9.246;2023-05-20T00:47:48;6.45;;;3.97;;
55647;SDS011;45266;48.756;9.246;2023-05-20T00:48:50;3.65;;;3.33;;
55647;SDS011;45266;48.756;9.246;2023-05-20T00:49:52;4.57;;;3.80;;
55647;SDS011;45266;48.756;9.246;2023-05-20T00:50:55;4.15;;;3.60;;
55647;SDS011;45266;48.756;9.246;2023-05-20T00:51:56;4.53;;;3.87;;
55647;SDS011;45266;48.756;9.246;2023-05-20T00:52:59;6.03;;;3.92;;
55647;SDS011;45266;48.756;9.246;2023-05-20T00:54:01;5.68;;;3.67;;
55647;SDS011;45266;48.756;9.246;2023-05-20T00:55:03;5.18;;;3.60;;
55647;SDS011;45266;48.756;9.246;2023-05-20T00:56:06;3.70;;;3.40;;
55647;SDS011;45266;48.756;9.246;2023-05-20T00:57:09;4.53;;;3.90;;
55647;SDS011;45266;48.756;9.246;2023-05-20T00:58:12;4.90;;;3.80;;
55647;SDS011;45266;48.756;9.246;2023-05-20T00:59:14;4.22;;;3.83;;
55647;SDS011;45266;48.756;9.246;2023-05-20T01:00:16;6.15;;;3.40;;
55647;SDS011;45266;48.756;9.246;2023-05-20T01:01:18;7.60;;;3.85;;
55647;SDS011;45266;48.756;9.246;2023-05-20T01:02:21;4.65;;;3.47;;
55647;SDS011;45266;48.756;9.246;2023-05-20T01:03:24;5.63;;;3.65;;
55647;SDS011;45266;48.756;9.246;2023-05-20T01:04:26;4.78;;;3.50;;
55647;SDS011;45266;48.756;9.246;2023-05-20T01:05:28;4.38;;;3.53;;
55647;SDS011;45266;48.756;9.246;2023-05-20T01:06:30;4.88;;;3.30;;
55647;SDS011;45266;48.756;9.246;2023-05-20T01:07:34;6.37;;;4.20;;
55647;SDS011;45266;48.756;9.246;2023-05-20T01:08:36;4.90;;;3.55;;
55647;SDS011;45266;48.756;9.246;2023-05-20T01:09:38;6.10;;;3.55;;
55647;SDS011;45266;48.756;9.246;2023-05-20T01:10:41;4.75;;;3.80;;
55647;SDS011;45266;48.756;9.246;2023-05-20T01:12:29;4.15;;;3.65;;
55647;SDS011;45266;48.756;9.246;2023-05-20T01:13:21;5.20;;;3.42;;
55647;SDS011;45266;48.756;9.246;2023-05-20T01:14:31;5.07;;;3.60;;
55647;SDS011;45266;48.756;9.246;2023-05-20T01:16:04;4.03;;;3.42;;
55647;SDS011;45266;48.756;9.246;2023-05-20T01:17:08;5.05;;;3.47;;
55647;SDS011;45266;48.756;9.246;2023-05-20T01:18:13;4.28;;;3.65;;
55647;SDS011;45266;48.756;9.246;2023-05-20T01:19:35;3.95;;;3.50;;
55647;SDS011;45266;48.756;9.246;2023-05-20T01:20:48;4.57;;;3.70;;
55647;SDS011;45266;48.756;9.246;2023-05-20T01:21:51;4.30;;;3.60;;
55647;SDS011;45266;48.756;9.246;2023-05-20T01:22:55;4.65;;;3.42;;
55647;SDS011;45266;48.756;9.246;2023-05-20T01:23:57;4.57;;;4.10;;
55647;SDS011;45266;48.756;9.246;2023-05-20T01:25:01;4.65;;;3.30;;
55647;SDS011;45266;48.756;9.246;2023-05-20T01:26:04;5.40;;;3.70;;
55647;SDS011;45266;48.756;9.246;2023-05-20T01:27:07;6.40;;;3.95;;
55647;SDS011;45266;48.756;9.246;2023-05-20T01:28:10;5.75;;;4.00;;
55647;SDS011;45266;48.756;9.246;2023-05-20T01:29:18;8.13;;;3.95;;
55647;SDS011;45266;48.756;9.246;2023-05-20T01:30:20;4.30;;;3.70;;
55647;SDS011;45266;48.756;9.246;2023-05-20T01:31:23;5.53;;;3.60;;
55647;SDS011;45266;48.756;9.246;2023-05-20T01:32:41;4.53;;;3.72;;
55647;SDS011;45266;48.756;9.246;2023-05-20T01:33:49;4.80;;;3.80;;
55647;SDS011;45266;48.756;9.246;2023-05-20T01:34:57;5.63;;;4.00;;
55647;SDS011;45266;48.756;9.246;2023-05-20T01:36:00;5.50;;;3.78;;
55647;SDS011;45266;48.756;9.246;2023-05-20T01:37:03;4.28;;;3.55;;
55647;SDS011;45266;48.756;9.246;2023-05-20T01:38:06;4.97;;;3.75;;
55647;SDS011;45266;48.756;9.246;2023-05-20T01:39:08;4.25;;;3.80;;
55647;SDS011;45266;48.756;9.246;2023-05-20T01:40:11;6.90;;;4.20;;
55647;SDS011;45266;48.756;9.246;2023-05-20T01:41:15;5.88;;;3.92;;
55647;SDS011;45266;48.756;9.246;2023-05-20T01:42:18;4.53;;;4.13;;
55647;SDS011;45266;48.756;9.246;2023-05-20T01:43:21;5.80;;;4.10;;
55647;SDS011;45266;48.756;9.246;2023-05-20T01:44:24;4.80;;;4.03;;
55647;SDS011;45266;48.756;9.246;2023-05-20T01:45:26;4.35;;;3.90;;
55647;SDS011;45266;48.756;9.246;2023-05-20T01:46:31;4.80;;;3.72;;
55647;SDS011;45266;48.756;9.246;2023-05-20T01:47:34;8.60;;;3.97;;
55647;SDS011;45266;48.756;9.246;2023-05-20T01:48:36;5.63;;;4.20;;
55647;SDS011;45266;48.756;9.246;2023-05-20T01:49:38;4.43;;;4.00;;
55647;SDS011;45266;48.756;9.246;2023-05-20T01:50:40;5.57;;;4.25;;
55647;SDS011;45266;48.756;9.246;2023-05-20T01:51:42;4.57;;;3.90;;
55647;SDS011;45266;48.756;9.246;2023-05-20T01:52:44;6.50;;;4.07;;
55647;SDS011;45266;48.756;9.246;2023-05-20T01:53:46;4.82;;;3.25;;
55647;SDS011;45266;48.756;9.246;2023-05-20T01:54:48;5.72;;;3.60;;
55647;SDS011;45266;48.756;9.246;2023-05-20T01:55:53;5.25;;;3.65;;
55647;SDS011;45266;48.756;9.246;2023-05-20T01:56:55;9.43;;;4.53;;
55647;SDS011;45266;48.756;9.246;2023-05-20T01:57:57;4.20;;;3.80;;
55647;SDS011;45266;48.756;9.246;2023-05-20T01:58:59;5.10;;;4.00;;
55647;SDS011;45266;48.756;9.246;2023-05-20T02:00:01;4.68;;;4.10;;
55647;SDS011;45266;48.756;9.246;2023-05-20T02:01:04;5.53;;;3.85;;
55647;SDS011;45266;48.756;9.246;2023-05-20T02:02:06;5.45;;;3.92;;
55647;SDS011;45266;48.756;9.246;2023-05-20T02:03:08;6.43;;;3.80;;
55647;SDS011;45266;48.756;9.246;2023-05-20T02:04:10;4.75;;;4.10;;
55647;SDS011;45266;48.756;9.246;2023-05-20T02:05:12;4.88;;;4.28;;
55647;SDS011;45266;48.756;9.246;2023-05-20T02:06:14;4.20;;;3.80;;
55647;SDS011;45266;48.756;9.246;2023-05-20T02:07:16;4.50;;;4.10;;
55647;SDS011;45266;48.756;9.246;2023-05-20T02:08:19;5.00;;;3.80;;
55647;SDS011;45266;48.756;9.246;2023-05-20T02:09:21;6.15;;;3.92;;
55647;SDS011;45266;48.756;9.246;2023-05-20T02:10:23;5.05;;;4.00;;
55647;SDS011;45266;48.756;9.246;2023-05-20T02:11:25;5.47;;;4.00;;
55647;SDS011;45266;48.756;9.246;2023-05-20T02:12:27;4.47;;;3.60;;
55647;SDS011;45266;48.756;9.246;2023-05-20T02:13:28;5.67;;;3.83;;
55647;SDS011;45266;48.756;9.246;2023-05-20T02:14:30;4.53;;;3.90;;
55647;SDS011;45266;48.756;9.246;2023-05-20T02:15:32;5.07;;;4.20;;
55647;SDS011;45266;48.756;9.246;2023-05-20T02:16:35;6.72;;;4.28;;
55647;SDS011;45266;48.756;9.246;2023-05-20T02:17:37;4.80;;;4.32;;
55647;SDS011;45266;48.756;9.246;2023-05-20T02:18:40;6.13;;;4.30;;
55647;SDS011;45266;48.756;9.246;2023-05-20T02:19:43;6.75;;;4.45;;
55647;SDS011;45266;48.756;9.246;2023-05-20T02:20:46;6.90;;;4.20;;
55647;SDS011;45266;48.756;9.246;2023-05-20T02:21:49;7.50;;;3.90;;
55647;SDS011;45266;48.756;9.246;2023-05-20T02:22:51;7.63;;;4.60;;
55647;SDS011;45266;48.756;9.246;2023-05-20T02:23:53;6.43;;;3.78;;
55647;SDS011;45266;48.756;9.246;2023-05-20T02:24:55;7.17;;;4.10;;
55647;SDS011;45266;48.756;9.246;2023-05-20T02:25:57;4.63;;;4.07;;
55647;SDS011;45266;48.756;9.246;2023-05-20T02:26:59;4.63;;;4.13;;
55647;SDS011;45266;48.756;9.246;2023-05-20T02:28:03;5.17;;;4.23;;
55647;SDS011;45266;48.756;9.246;2023-05-20T02:29:10;4.90;;;4.07;;
55647;SDS011;45266;48.756;9.246;2023-05-20T02:30:13;3.90;;;3.50;;
55647;SDS011;45266;48.756;9.246;2023-05-20T02:31:15;9.15;;;4.03;;
55647;SDS011;45266;48.756;9.246;2023-05-20T02:32:17;4.80;;;3.63;;
55647;SDS011;45266;48.756;9.246;2023-05-20T02:33:20;4.90;;;3.80;;
55647;SDS011;45266;48.756;9.246;2023-05-20T02:34:23;5.27;;;3.70;;
55647;SDS011;45266;48.756;9.246;2023-05-20T02:35:26;5.05;;;3.58;;
55647;SDS011;45266;48.756;9.246;2023-05-20T02:36:28;4.43;;;4.00;;
55647;SDS011;45266;48.756;9.246;2023-05-20T02:37:32;4.72;;;4.13;;
55647;SDS011;45266;48.756;9.246;2023-05-20T02:38:34;4.63;;;3.83;;
55647;SDS011;45266;48.756;9.246;2023-05-20T02:39:36;8.57;;;4.17;;
55647;SDS011;45266;48.756;9.246;2023-05-20T02:40:38;4.65;;;3.75;;
55647;SDS011;45266;48.756;9.246;2023-05-20T02:41:40;5.05;;;3.88;;
55647;SDS011;45266;48.756;9.246;2023-05-20T02:42:42;5.13;;;4.13;;
55647;SDS011;45266;48.756;9.246;2023-05-20T02:43:44;6.07;;;4.10;;
55647;SDS011;45266;48.756;9.246;2023-05-20T02:44:46;8.23;;;4.53;;
55647;SDS011;45266;48.756;9.246;2023-05-20T02:45:48;8.70;;;4.35;;
55647;SDS011;45266;48.756;9.246;2023-05-20T02:46:50;5.73;;;4.10;;
55647;SDS011;45266;48.756;9.246;2023-05-20T02:47:52;3.95;;;3.58;;
55647;SDS011;45266;48.756;9.246;2023-05-20T02:48:54;7.13;;;4.40;;
55647;SDS011;45266;48.756;9.246;2023-05-20T02:49:56;6.75;;;4.97;;
55647;SDS011;45266;48.756;9.246;2023-05-20T02:50:58;6.68;;;4.03;;
55647;SDS011;45266;48.756;9.246;2023-05-20T02:52:00;5.25;;;4.20;;
55647;SDS011;45266;48.756;9.246;2023-05-20T02:53:02;6.33;;;4.10;;
55647;SDS011;45266;48.756;9.246;2023-05-20T02:54:04;4.73;;;3.83;;
55647;SDS011;45266;48.756;9.246;2023-05-20T02:55:06;5.35;;;4.28;;
55647;SDS011;45266;48.756;9.246;2023-05-20T02:56:08;4.67;;;4.27;;
55647;SDS011;45266;48.756;9.246;2023-05-20T02:57:11;5.32;;;4.82;;
55647;SDS011;45266;48.756;9.246;2023-05-20T02:58:13;5.43;;;4.30;;
55647;SDS011;45266;48.756;9.246;2023-05-20T02:59:15;5.57;;;4.03;;
55647;SDS011;45266;48.756;9.246;2023-05-20T03:00:17;6.80;;;4.28;;
55647;SDS011;45266;48.756;9.246;2023-05-20T03:01:19;4.70;;;4.30;;
55647;SDS011;45266;48.756;9.246;2023-05-20T03:02:21;6.63;;;4.22;;
55647;SDS011;45266;48.756;9.246;2023-05-20T03:03:24;4.93;;;4.30;;
55647;SDS011;45266;48.756;9.246;2023-05-20T03:04:29;6.30;;;4.68;;
55647;SDS011;45266;48.756;9.246;2023-05-20T03:05:32;6.93;;;4.73;;
55647;SDS011;45266;48.756;9.246;2023-05-20T03:06:37;5.07;;;4.13;;
55647;SDS011;45266;48.756;9.246;2023-05-20T03:07:44;6.15;;;4.53;;
55647;SDS011;45266;48.756;9.246;2023-05-20T03:08:46;5.63;;;4.43;;
55647;SDS011;45266;48.756;9.246;2023-05-20T03:09:49;4.70;;;4.20;;
55647;SDS011;45266;48.756;9.246;2023-05-20T03:10:51;6.00;;;3.75;;
55647;SDS011;45266;48.756;9.246;2023-05-20T03:11:53;4.87;;;4.37;;
55647;SDS011;45266;48.756;9.246;2023-05-20T03:12:55;7.55;;;4.88;;
55647;SDS011;45266;48.756;9.246;2023-05-20T03:13:56;5.77;;;4.63;;
55647;SDS011;45266;48.756;9.246;2023-05-20T03:14:58;5.03;;;4.35;;
55647;SDS011;45266;48.756;9.246;2023-05-20T03:16:01;6.93;;;4.30;;
55647;SDS011;45266;48.756;9.246;2023-05-20T03:17:03;7.22;;;4.40;;
55647;SDS011;45266;48.756;9.246;2023-05-20T03:18:06;4.95;;;4.53;;
55647;SDS011;45266;48.756;9.246;2023-05-20T03:19:08;5.35;;;4.32;;
55647;SDS011;45266;48.756;9.246;2023-05-20T03:20:10;4.97;;;4.23;;
55647;SDS011;45266;48.756;9.246;2023-05-20T03:21:14;6.70;;;4.80;;
55647;SDS011;45266;48.756;9.246;2023-05-20T03:22:16;5.68;;;4.45;;
55647;SDS011;45266;48.756;9.246;2023-05-20T03:23:18;7.73;;;4.73;;
55647;SDS011;45266;48.756;9.246;2023-05-20T03:24:19;5.23;;;4.47;;
55647;SDS011;45266;48.756;9.246;2023-05-20T03:25:23;5.57;;;4.70;;
55647;SDS011;45266;48.756;9.246;2023-05-20T03:26:26;5.20;;;4.30;;
55647;SDS011;45266;48.756;9.246;2023-05-20T03:27:28;5.50;;;5.00;;
55647;SDS011;45266;48.756;9.246;2023-05-20T03:28:30;6.97;;;5.00;;
55647;SDS011;45266;48.756;9.246;2023-05-20T03:29:32;5.22;;;4.63;;
55647;SDS011;45266;48.756;9.246;2023-05-20T03:30:33;4.93;;;4.30;;
55647;SDS011;45266;48.756;9.246;2023-05-20T03:31:35;5.93;;;4.40;;
55647;SDS011;45266;48.756;9.246;2023-05-20T03:32:37;5.10;;;4.60;;
55647;SDS011;45266;48.756;9.246;2023-05-20T03:33:39;6.38;;;4.57;;
55647;SDS011;45266;48.756;9.246;2023-05-20T03:34:41;6.82;;;5.10;;
55647;SDS011;45266;48.756;9.246;2023-05-20T03:35:43;7.63;;;4.40;;
55647;SDS011;45266;48.756;9.246;2023-05-20T03:36:45;5.27;;;4.77;;
55647;SDS011;45266;48.756;9.246;2023-05-20T03:37:47;5.90;;;4.47;;
55647;SDS011;45266;48.756;9.246;2023-05-20T03:38:49;4.88;;;4.35;;
55647;SDS011;45266;48.756;9.246;2023-05-20T03:39:50;4.72;;;4.32;;
55647;SDS011;45266;48.756;9.246;2023-05-20T03:40:52;5.40;;;4.87;;
55647;SDS011;45266;48.756;9.246;2023-05-20T03:41:54;5.40;;;4.90;;
55647;SDS011;45266;48.756;9.246;2023-05-20T03:42:56;5.90;;;5.20;;
55647;SDS011;45266;48.756;9.246;2023-05-20T03:43:58;6.28;;;4.93;;
55647;SDS011;45266;48.756;9.246;2023-05-20T03:45:00;6.13;;;5.07;;
55647;SDS011;45266;48.756;9.246;2023-05-20T03:46:02;5.60;;;4.63;;
55647;SDS011;45266;48.756;9.246;2023-05-20T03:47:04;7.17;;;5.00;;
55647;SDS011;45266;48.756;9.246;2023-05-20T03:48:06;6.70;;;4.93;;
55647;SDS011;45266;48.756;9.246;2023-05-20T03:49:08;7.95;;;4.80;;
55647;SDS011;45266;48.756;9.246;2023-05-20T03:50:10;5.60;;;4.93;;
55647;SDS011;45266;48.756;9.246;2023-05-20T03:51:12;5.50;;;4.72;;
55647;SDS011;45266;48.756;9.246;2023-05-20T03:52:15;5.68;;;4.65;;
55647;SDS011;45266;48.756;9.246;2023-05-20T03:53:17;5.32;;;4.82;;
55647;SDS011;45266;48.756;9.246;2023-05-20T03:54:20;7.28;;;4.65;;
55647;SDS011;45266;48.756;9.246;2023-05-20T03:55:22;6.88;;;5.32;;
55647;SDS011;45266;48.756;9.246;2023-05-20T03:56:25;6.07;;;4.93;;
55647;SDS011;45266;48.756;9.246;2023-05-20T03:57:26;7.60;;;4.47;;
55647;SDS011;45266;48.756;9.246;2023-05-20T03:58:29;5.70;;;4.77;;
55647;SDS011;45266;48.756;9.246;2023-05-20T03:59:31;5.53;;;5.03;;
55647;SDS011;45266;48.756;9.246;2023-05-20T04:00:33;6.13;;;4.53;;
55647;SDS011;45266;48.756;9.246;2023-05-20T04:01:35;5.38;;;4.50;;
55647;SDS011;45266;48.756;9.246;2023-05-20T04:02:37;6.70;;;5.20;;
55647;SDS011;45266;48.756;9.246;2023-05-20T04:03:39;6.13;;;5.40;;
55647;SDS011;45266;48.756;9.246;2023-05-20T04:04:44;6.03;;;5.43;;
55647;SDS011;45266;48.756;9.246;2023-05-20T04:05:47;6.80;;;6.10;;
55647;SDS011;45266;48.756;9.246;2023-05-20T04:06:49;5.10;;;4.68;;
55647;SDS011;45266;48.756;9.246;2023-05-20T04:07:51;6.07;;;4.80;;
55647;SDS011;45266;48.756;9.246;2023-05-20T04:08:52;4.57;;;4.18;;
55647;SDS011;45266;48.756;9.246;2023-05-20T04:09:54;6.10;;;4.53;;
55647;SDS011;45266;48.756;9.246;2023-05-20T04:10:56;5.85;;;4.80;;
55647;SDS011;45266;48.756;9.246;2023-05-20T04:11:58;5.15;;;4.65;;
55647;SDS011;45266;48.756;9.246;2023-05-20T04:13:00;6.23;;;4.70;;
55647;SDS011;45266;48.756;9.246;2023-05-20T04:14:02;6.60;;;4.83;;
55647;SDS011;45266;48.756;9.246;2023-05-20T04:15:04;4.68;;;4.28;;
55647;SDS011;45266;48.756;9.246;2023-05-20T04:16:06;5.53;;;4.63;;
55647;SDS011;45266;48.756;9.246;2023-05-20T04:17:08;6.15;;;4.78;;
55647;SDS011;45266;48.756;9.246;2023-05-20T04:18:10;5.60;;;4.60;;
55647;SDS011;45266;48.756;9.246;2023-05-20T04:19:13;5.07;;;4.57;;
55647;SDS011;45266;48.756;9.246;2023-05-20T04:20:16;6.85;;;5.45;;
55647;SDS011;45266;48.756;9.246;2023-05-20T04:21:18;5.65;;;5.05;;
55647;SDS011;45266;48.756;9.246;2023-05-20T04:22:20;5.75;;;5.20;;
55647;SDS011;45266;48.756;9.246;2023-05-20T04:23:22;5.97;;;4.60;;
55647;SDS011;45266;48.756;9.246;2023-05-20T04:24:24;6.78;;;4.85;;
55647;SDS011;45266;48.756;9.246;2023-05-20T04:25:27;5.63;;;4.85;;
55647;SDS011;45266;48.756;9.246;2023-05-20T04:26:28;5.93;;;5.15;;
55647;SDS011;45266;48.756;9.246;2023-05-20T04:27:30;6.38;;;4.60;;
55647;SDS011;45266;48.756;9.246;2023-05-20T04:28:34;5.60;;;4.90;;
55647;SDS011;45266;48.756;9.246;2023-05-20T04:29:37;5.00;;;4.10;;
55647;SDS011;45266;48.756;9.246;2023-05-20T04:30:41;5.60;;;4.43;;
55647;SDS011;45266;48.756;9.246;2023-05-20T04:31:45;6.05;;;4.93;;
55647;SDS011;45266;48.756;9.246;2023-05-20T04:32:49;5.00;;;4.20;;
55647;SDS011;45266;48.756;9.246;2023-05-20T04:33:51;7.15;;;4.68;;
55647;SDS011;45266;48.756;9.246;2023-05-20T04:34:54;4.80;;;4.30;;
55647;SDS011;45266;48.756;9.246;2023-05-20T04:35:56;4.80;;;4.38;;
55647;SDS011;45266;48.756;9.246;2023-05-20T04:36:58;6.13;;;4.57;;
55647;SDS011;45266;48.756;9.246;2023-05-20T04:38:01;5.15;;;4.15;;
55647;SDS011;45266;48.756;9.246;2023-05-20T04:39:03;6.27;;;4.47;;
55647;SDS011;45266;48.756;9.246;2023-05-20T04:40:08;5.93;;;4.15;;
55647;SDS011;45266;48.756;9.246;2023-05-20T04:41:10;6.18;;;4.30;;
55647;SDS011;45266;48.756;9.246;2023-05-20T04:42:12;4.78;;;4.30;;
55647;SDS011;45266;48.756;9.246;2023-05-20T04:43:14;5.00;;;4.45;;
55647;SDS011;45266;48.756;9.246;2023-05-20T04:44:17;4.75;;;4.13;;
55647;SDS011;45266;48.756;9.246;2023-05-20T04:45:20;4.93;;;4.43;;
55647;SDS011;45266;48.756;9.246;2023-05-20T04:46:23;6.57;;;4.05;;
55647;SDS011;45266;48.756;9.246;2023-05-20T04:47:26;4.90;;;4.40;;
55647;SDS011;45266;48.756;9.246;2023-05-20T04:48:29;7.50;;;5.07;;
55647;SDS011;45266;48.756;9.246;2023-05-20T04:49:31;5.78;;;4.13;;
55647;SDS011;45266;48.756;9.246;2023-05-20T04:50:33;5.95;;;4.57;;
55647;SDS011;45266;48.756;9.246;2023-05-20T04:51:35;7.15;;;5.03;;
55647;SDS011;45266;48.756;9.246;2023-05-20T04:52:37;5.03;;;4.53;;
55647;SDS011;45266;48.756;9.246;2023-05-20T04:53:39;5.73;;;4.27;;
55647;SDS011;45266;48.756;9.246;2023-05-20T04:54:41;5.80;;;4.40;;
55647;SDS011;45266;48.756;9.246;2023-05-20T04:55:44;6.28;;;4.55;;
55647;SDS011;45266;48.756;9.246;2023-05-20T04:56:46;6.72;;;4.03;;
55647;SDS011;45266;48.756;9.246;2023-05-20T04:57:48;6.53;;;4.40;;
55647;SDS011;45266;48.756;9.246;2023-05-20T04:58:50;4.95;;;4.38;;
55647;SDS011;45266;48.756;9.246;2023-05-20T04:59:51;5.50;;;3.97;;
55647;SDS011;45266;48.756;9.246;2023-05-20T05:00:53;5.78;;;4.38;;
55647;SDS011;45266;48.756;9.246;2023-05-20T05:01:56;5.18;;;4.68;;
55647;SDS011;45266;48.756;9.246;2023-05-20T05:02:59;5.28;;;4.25;;
55647;SDS011;45266;48.756;9.246;2023-05-20T05:04:01;6.53;;;4.78;;
55647;SDS011;45266;48.756;9.246;2023-05-20T05:05:04;5.30;;;4.78;;
55647;SDS011;45266;48.756;9.246;2023-05-20T05:06:06;5.35;;;4.85;;
55647;SDS011;45266;48.756;9.246;2023-05-20T05:07:08;5.47;;;4.40;;
55647;SDS011;45266;48.756;9.246;2023-05-20T05:08:11;7.50;;;5.00;;
55647;SDS011;45266;48.756;9.246;2023-05-20T05:09:13;5.03;;;4.20;;
55647;SDS011;45266;48.756;9.246;2023-05-20T05:10:15;5.07;;;4.57;;
55647;SDS011;45266;48.756;9.246;2023-05-20T05:11:17;6.40;;;4.40;;
55647;SDS011;45266;48.756;9.246;2023-05-20T05:12:19;4.55;;;4.13;;
55647;SDS011;45266;48.756;9.246;2023-05-20T05:13:21;5.47;;;4.60;;
55647;SDS011;45266;48.756;9.246;2023-05-20T05:14:22;4.68;;;4.28;;
55647;SDS011;45266;48.756;9.246;2023-05-20T05:15:24;5.43;;;4.50;;
55647;SDS011;45266;48.756;9.246;2023-05-20T05:16:26;4.95;;;4.55;;
55647;SDS011;45266;48.756;9.246;2023-05-20T05:17:28;5.70;;;4.93;;
55647;SDS011;45266;48.756;9.246;2023-05-20T05:18:30;11.30;;;4.72;;
55647;SDS011;45266;48.756;9.246;2023-05-20T05:19:32;6.15;;;5.00;;
55647;SDS011;45266;48.756;9.246;2023-05-20T05:20:34;7.65;;;5.45;;
55647;SDS011;45266;48.756;9.246;2023-05-20T05:21:36;5.70;;;4.85;;
55647;SDS011;45266;48.756;9.246;2023-05-20T05:22:38;5.65;;;5.05;;
55647;SDS011;45266;48.756;9.246;2023-05-20T05:23:41;5.43;;;4.80;;
55647;SDS011;45266;48.756;9.246;2023-05-20T05:24:43;5.90;;;4.97;;
55647;SDS011;45266;48.756;9.246;2023-05-20T05:25:49;5.93;;;5.20;;
55647;SDS011;45266;48.756;9.246;2023-05-20T05:26:52;7.95;;;5.28;;
55647;SDS011;45266;48.756;9.246;2023-05-20T05:27:55;6.35;;;4.88;;
55647;SDS011;45266;48.756;9.246;2023-05-20T05:28:56;6.50;;;4.93;;
55647;SDS011;45266;48.756;9.246;2023-05-20T05:29:58;5.88;;;5.22;;
55647;SDS011;45266;48.756;9.246;2023-05-20T05:31:00;6.63;;;5.00;;
55647;SDS011;45266;48.756;9.246;2023-05-20T05:32:02;5.40;;;4.90;;
55647;SDS011;45266;48.756;9.246;2023-05-20T05:33:04;6.45;;;5.28;;
55647;SDS011;45266;48.756;9.246;2023-05-20T05:34:06;5.47;;;4.97;;
55647;SDS011;45266;48.756;9.246;2023-05-20T05:35:08;7.05;;;5.22;;
55647;SDS011;45266;48.756;9.246;2023-05-20T05:36:11;6.70;;;5.25;;
55647;SDS011;45266;48.756;9.246;2023-05-20T05:37:13;5.97;;;5.38;;
55647;SDS011;45266;48.756;9.246;2023-05-20T05:38:15;6.30;;;5.07;;
55647;SDS011;45266;48.756;9.246;2023-05-20T05:39:17;5.82;;;4.50;;
55647;SDS011;45266;48.756;9.246;2023-05-20T05:40:19;6.65;;;5.07;;
55647;SDS011;45266;48.756;9.246;2023-05-20T05:41:21;6.00;;;5.40;;
55647;SDS011;45266;48.756;9.246;2023-05-20T05:42:23;7.80;;;4.80;;
55647;SDS011;45266;48.756;9.246;2023-05-20T05:43:25;5.20;;;4.68;;
55647;SDS011;45266;48.756;9.246;2023-05-20T05:44:27;4.88;;;4.43;;
55647;SDS011;45266;48.756;9.246;2023-05-20T05:45:28;6.05;;;5.45;;
55647;SDS011;45266;48.756;9.246;2023-05-20T05:46:31;6.18;;;5.50;;
55647;SDS011;45266;48.756;9.246;2023-05-20T05:47:33;5.65;;;4.90;;
55647;SDS011;45266;48.756;9.246;2023-05-20T05:48:35;5.35;;;4.78;;
55647;SDS011;45266;48.756;9.246;2023-05-20T05:49:37;5.20;;;4.70;;
55647;SDS011;45266;48.756;9.246;2023-05-20T05:50:42;7.18;;;4.70;;
55647;SDS011;45266;48.756;9.246;2023-05-20T05:51:46;5.22;;;4.43;;
55647;SDS011;45266;48.756;9.246;2023-05-20T05:52:48;5.70;;;5.00;;
55647;SDS011;45266;48.756;9.246;2023-05-20T05:53:49;5.80;;;5.18;;
55647;SDS011;45266;48.756;9.246;2023-05-20T05:54:52;5.30;;;4.80;;
55647;SDS011;45266;48.756;9.246;2023-05-20T05:55:54;5.28;;;4.78;;
55647;SDS011;45266;48.756;9.246;2023-05-20T05:56:56;4.82;;;4.43;;
55647;SDS011;45266;48.756;9.246;2023-05-20T05:57:58;9.25;;;5.05;;
55647;SDS011;45266;48.756;9.246;2023-05-20T05:59:00;5.95;;;4.45;;
55647;SDS011;45266;48.756;9.246;2023-05-20T06:00:02;5.32;;;4.82;;
55647;SDS011;45266;48.756;9.246;2023-05-20T06:01:04;4.70;;;4.30;;
55647;SDS011;45266;48.756;9.246;2023-05-20T06:02:07;7.70;;;4.45;;
55647;SDS011;45266;48.756;9.246;2023-05-20T06:03:11;6.38;;;5.03;;
55647;SDS011;45266;48.756;9.246;2023-05-20T06:04:13;6.38;;;4.90;;
55647;SDS011;45266;48.756;9.246;2023-05-20T06:05:15;5.80;;;4.72;;
55647;SDS011;45266;48.756;9.246;2023-05-20T06:06:17;4.68;;;4.28;;
55647;SDS011;45266;48.756;9.246;2023-05-20T06:07:18;5.20;;;4.70;;
55647;SDS011;45266;48.756;9.246;2023-05-20T06:08:20;5.47;;;4.50;;
55647;SDS011;45266;48.756;9.246;2023-05-20T06:09:22;5.80;;;4.95;;
55647;SDS011;45266;48.756;9.246;2023-05-20T06:10:24;5.80;;;4.47;;
55647;SDS011;45266;48.756;9.246;2023-05-20T06:11:26;5.63;;;4.95;;
55647;SDS011;45266;48.756;9.246;2023-05-20T06:12:28;5.57;;;4.63;;
55647;SDS011;45266;48.756;9.246;2023-05-20T06:13:30;5.38;;;4.80;;
55647;SDS011;45266;48.756;9.246;2023-05-20T06:14:32;5.35;;;4.85;;
55647;SDS011;45266;48.756;9.246;2023-05-20T06:15:33;6.10;;;4.60;;
55647;SDS011;45266;48.756;9.246;2023-05-20T06:16:36;5.68;;;5.07;;
55647;SDS011;45266;48.756;9.246;2023-05-20T06:17:39;5.57;;;4.63;;